Time;durP1;ratioP1;P1;durP2;ratioP2;P2;SDS_P1;SDS_P2;PMS_P1;PMS_P2;Temp;Humidity;BMP_temperature;BMP_pressure;BME280_temperature;BME280_humidity;BME280_pressure;Samples;Min_cycle;Max_cycle;Signal;HPM_P1;HPM_P2
2022/06/27 00:02:25;;;;;;;5.83;4.80;;;;;;;20.18;88.49;95122.19;5015483;28;20817;-78
2022/06/27 00:04:53;;;;;;;5.73;4.10;;;;;;;20.20;87.89;95109.50;5015498;28;20480;-78
2022/06/27 00:07:20;;;;;;;8.77;3.73;;;;;;;20.23;87.17;95113.63;5015555;28;20813;-78
2022/06/27 00:09:48;;;;;;;6.10;3.70;;;;;;;20.25;86.76;95115.13;5015341;28;20484;-78
2022/06/27 00:12:15;;;;;;;6.57;4.47;;;;;;;20.25;85.76;95115.13;5015399;28;20443;-78
2022/06/27 00:14:42;;;;;;;6.60;4.10;;;;;;;20.24;86.21;95121.47;5015238;28;20459;-77
2022/06/27 00:17:09;;;;;;;4.43;4.13;;;;;;;20.15;85.77;95119.88;5015548;28;20823;-78
2022/06/27 00:19:35;;;;;;;8.60;4.30;;;;;;;20.11;85.10;95115.94;5015284;28;20465;-78
2022/06/27 00:22:04;;;;;;;5.27;4.00;;;;;;;20.06;85.29;95116.50;5015099;28;20448;-77
2022/06/27 00:24:31;;;;;;;4.60;4.20;;;;;;;19.96;84.70;95121.28;5015159;28;20440;-79
2022/06/27 00:26:59;;;;;;;3.90;3.60;;;;;;;19.90;85.04;95119.31;5015219;28;20439;-78
2022/06/27 00:29:26;;;;;;;4.60;4.17;;;;;;;19.86;85.24;95111.88;5015223;28;20484;-77
2022/06/27 00:31:53;;;;;;;5.17;4.70;;;;;;;19.90;85.91;95110.50;5015186;28;20458;-78
2022/06/27 00:34:19;;;;;;;4.10;3.80;;;;;;;19.88;85.75;95115.19;5014822;28;20456;-78
2022/06/27 00:36:46;;;;;;;5.10;4.40;;;;;;;19.88;85.15;95120.50;5014838;28;20815;-78
2022/06/27 00:39:13;;;;;;;4.53;4.13;;;;;;;19.78;85.00;95121.59;5014979;28;20455;-77
2022/06/27 00:41:40;;;;;;;4.80;4.10;;;;;;;19.53;86.20;95117.50;5014798;28;20451;-77
2022/06/27 00:44:09;;;;;;;5.30;4.40;;;;;;;19.57;87.65;95123.28;5014977;28;20444;-78
2022/06/27 00:46:36;;;;;;;5.70;4.43;;;;;;;19.59;87.48;95114.09;5015048;28;20456;-77
2022/06/27 00:49:03;;;;;;;8.10;4.87;;;;;;;19.65;87.07;95118.72;5014912;28;20986;-78
2022/06/27 00:51:30;;;;;;;5.93;4.50;;;;;;;19.71;87.47;95107.34;5014919;28;20448;-78
2022/06/27 00:53:57;;;;;;;4.03;3.63;;;;;;;19.75;87.04;95118.47;5014888;28;20454;-77
2022/06/27 00:56:24;;;;;;;5.40;4.20;;;;;;;19.77;87.03;95117.28;5014260;28;20451;-78
2022/06/27 00:58:51;;;;;;;15.73;5.10;;;;;;;19.84;87.52;95108.56;4996010;28;20459;-77
2022/06/27 01:01:19;;;;;;;4.43;4.03;;;;;;;19.82;87.81;95110.59;5014472;28;20444;-78
2022/06/27 01:03:46;;;;;;;5.33;4.53;;;;;;;19.84;87.27;95108.56;5013951;28;20857;-78
2022/06/27 01:06:13;;;;;;;6.00;4.30;;;;;;;19.83;86.59;95105.06;5014617;28;20451;-79
2022/06/27 01:08:40;;;;;;;5.90;4.20;;;;;;;19.76;86.37;95099.66;5014320;28;20495;-77
2022/06/27 01:11:07;;;;;;;5.33;3.90;;;;;;;19.78;85.93;95096.81;5014435;28;20444;-78
2022/06/27 01:13:34;;;;;;;4.53;3.97;;;;;;;19.77;85.98;95097.81;4979513;28;20436;-77
2022/06/27 01:16:02;;;;;;;4.73;4.37;;;;;;;19.75;86.05;95099.84;5014013;28;20448;-78
2022/06/27 01:18:30;;;;;;;4.80;3.80;;;;;;;19.74;86.25;95099.00;5014128;28;20456;-77
2022/06/27 01:20:57;;;;;;;5.03;4.53;;;;;;;19.71;86.30;95102.03;5014194;28;20462;-78
2022/06/27 01:23:25;;;;;;;4.90;4.60;;;;;;;19.66;85.77;95100.91;5014114;28;20791;-78
2022/06/27 01:25:54;;;;;;;4.90;4.50;;;;;;;19.60;86.00;95099.78;5014060;28;20454;-78
2022/06/27 01:28:21;;;;;;;4.87;4.37;;;;;;;19.56;85.82;95100.34;5013936;28;20451;-78
2022/06/27 01:30:49;;;;;;;5.03;4.63;;;;;;;19.57;86.49;95099.31;4979211;28;20439;-78
2022/06/27 01:33:15;;;;;;;5.07;4.50;;;;;;;19.53;86.64;95106.00;5014198;28;20444;-78
2022/06/27 01:35:42;;;;;;;5.83;4.70;;;;;;;19.50;86.68;95107.19;5013999;28;20452;-77
2022/06/27 01:38:09;;;;;;;4.47;4.03;;;;;;;19.44;86.24;95113.22;5013870;28;20444;-78
2022/06/27 01:40:37;;;;;;;6.03;4.83;;;;;;;19.49;86.11;95118.84;4995285;28;20867;-76
2022/06/27 01:43:05;;;;;;;4.70;4.40;;;;;;;19.49;86.13;95124.16;4978983;28;20440;-77
2022/06/27 01:45:33;;;;;;;8.60;4.67;;;;;;;19.50;85.94;95125.81;5013563;28;20451;-78
2022/06/27 01:48:00;;;;;;;7.83;5.70;;;;;;;19.36;86.16;95129.22;5013812;28;20456;-78
2022/06/27 01:50:30;;;;;;;5.40;4.97;;;;;;;19.29;86.77;95123.81;5013443;28;21024;-78
2022/06/27 01:52:58;;;;;;;9.50;5.17;;;;;;;19.24;87.50;95122.69;5013584;28;20448;-77
2022/06/27 01:55:25;;;;;;;4.53;4.13;;;;;;;19.26;87.42;95121.50;5011379;28;20452;-77
2022/06/27 01:57:54;;;;;;;5.17;4.67;;;;;;;19.28;87.83;95122.16;5013558;28;20479;-78
2022/06/27 02:00:21;;;;;;;6.20;5.53;;;;;;;19.30;88.78;95121.97;5011317;28;20687;-78
2022/06/27 02:02:48;;;;;;;9.93;5.20;;;;;;;19.23;89.34;95121.84;5013296;28;20803;-78
2022/06/27 02:05:16;;;;;;;7.27;5.53;;;;;;;19.25;90.11;95124.34;5013207;28;20446;-77
2022/06/27 02:07:45;;;;;;;6.33;5.47;;;;;;;19.24;90.25;95128.00;5013293;28;20949;-78
2022/06/27 02:10:11;;;;;;;7.50;5.77;;;;;;;19.26;91.04;95133.97;5012574;28;20484;-77
2022/06/27 02:12:39;;;;;;;5.67;5.17;;;;;;;19.24;90.88;95128.00;4978678;28;20451;-77
2022/06/27 02:15:09;;;;;;;6.43;5.00;;;;;;;19.29;89.58;95137.09;5013336;28;20451;-79
2022/06/27 02:17:36;;;;;;;9.60;5.90;;;;;;;19.28;88.16;95135.44;4995156;28;20523;-76
2022/06/27 02:20:04;;;;;;;4.40;4.10;;;;;;;19.29;87.34;95136.28;5013007;28;20451;-77
2022/06/27 02:22:31;;;;;;;5.70;4.90;;;;;;;19.27;87.07;95140.94;5013035;28;20468;-78
2022/06/27 02:24:58;;;;;;;5.27;4.73;;;;;;;19.17;87.07;95141.19;5012978;28;20444;-77
2022/06/27 02:27:25;;;;;;;5.47;4.97;;;;;;;19.06;87.05;95142.41;5013134;28;20467;-78
2022/06/27 02:29:52;;;;;;;5.23;4.30;;;;;;;18.95;88.28;95144.66;5013218;28;20491;-78
2022/06/27 02:32:21;;;;;;;5.50;4.83;;;;;;;18.93;88.38;95136.84;4994340;28;20444;-79
2022/06/27 02:34:50;;;;;;;9.43;4.87;;;;;;;18.88;88.45;95137.38;5012860;28;20448;-78
2022/06/27 02:37:18;;;;;;;7.80;4.77;;;;;;;18.86;88.05;95134.06;5012707;28;20452;-78
2022/06/27 02:39:48;;;;;;;6.43;4.80;;;;;;;18.87;88.73;95146.34;5013077;28;20443;-78
2022/06/27 02:42:18;;;;;;;9.13;5.63;;;;;;;18.90;89.06;95158.47;5012994;28;20440;-78
2022/06/27 02:44:48;;;;;;;5.13;4.70;;;;;;;18.93;88.24;95154.63;5012658;28;20451;-78
2022/06/27 02:47:15;;;;;;;5.43;4.93;;;;;;;18.97;88.21;95161.25;5012699;28;20922;-78
2022/06/27 02:49:43;;;;;;;6.00;4.20;;;;;;;19.00;88.16;95153.75;5012636;28;20484;-78
2022/06/27 02:52:18;;;;;;;5.33;4.93;;;;;;;19.00;87.76;95161.72;5012546;28;20942;-77
2022/06/27 02:54:49;;;;;;;7.33;5.60;;;;;;;19.00;87.66;95167.06;5012628;28;20494;-77
2022/06/27 02:57:20;;;;;;;6.70;5.10;;;;;;;18.86;87.25;95168.63;5012648;28;20436;-77
2022/06/27 02:59:51;;;;;;;5.77;5.20;;;;;;;18.87;87.85;95169.47;4977900;28;20447;-77
2022/06/27 03:02:19;;;;;;;4.57;4.20;;;;;;;18.92;87.96;95167.09;5012460;28;20448;-76
2022/06/27 03:04:47;;;;;;;5.40;4.93;;;;;;;18.97;87.82;95167.41;5012486;28;20480;-78
2022/06/27 03:07:14;;;;;;;6.13;4.93;;;;;;;19.02;88.04;95162.38;5012746;28;20440;-77
2022/06/27 03:09:41;;;;;;;4.93;4.53;;;;;;;19.09;87.63;95168.69;5012224;28;20487;-77
2022/06/27 03:12:08;;;;;;;7.93;5.80;;;;;;;19.04;86.89;95176.34;5012438;28;20452;-78
2022/06/27 03:14:35;;;;;;;6.10;5.50;;;;;;;19.00;87.31;95175.03;5012049;28;20454;-78
2022/06/27 03:17:02;;;;;;;14.53;4.90;;;;;;;18.82;88.41;95174.47;5012314;28;20444;-78
2022/06/27 03:19:29;;;;;;;8.70;5.87;;;;;;;18.71;89.24;95170.34;5012368;28;20458;-79
2022/06/27 03:21:58;;;;;;;7.70;5.33;;;;;;;18.73;90.56;95168.34;5016289;28;20440;-77
2022/06/27 03:24:24;;;;;;;5.93;5.10;;;;;;;18.77;90.88;95168.81;5016150;28;20448;-78
2022/06/27 03:26:51;;;;;;;6.30;5.43;;;;;;;18.71;90.70;95169.53;5016133;28;21064;-78
2022/06/27 03:29:19;;;;;;;11.03;6.37;;;;;;;18.71;91.72;95164.22;5016027;28;20510;-77
2022/06/27 03:31:46;;;;;;;7.03;6.33;;;;;;;18.85;92.07;95166.97;5016208;28;20451;-78
2022/06/27 03:34:13;;;;;;;7.73;5.37;;;;;;;18.99;91.35;95165.41;5016347;28;20444;-74
2022/06/27 03:36:41;;;;;;;5.97;5.57;;;;;;;19.18;90.55;95166.78;5016283;28;20458;-78
2022/06/27 03:39:11;;;;;;;7.23;5.60;;;;;;;19.27;89.24;95167.56;5015928;28;21016;-77
2022/06/27 03:41:39;;;;;;;8.93;6.13;;;;;;;19.55;89.74;95171.38;5016067;28;20459;-74
2022/06/27 03:44:08;;;;;;;7.80;5.50;;;;;;;19.72;87.50;95180.09;5016121;28;20454;-77
2022/06/27 03:46:35;;;;;;;6.10;5.50;;;;;;;20.03;86.87;95182.63;5015900;28;20776;-78
2022/06/27 03:51:47;;;;;;;5.60;4.60;;;;;;;20.74;83.51;95181.22;5015752;28;20439;-78
2022/06/27 03:54:15;;;;;;;8.00;5.50;;;;;;;21.04;81.59;95182.84;5015697;28;20452;-78
2022/06/27 03:56:42;;;;;;;6.23;5.60;;;;;;;21.28;80.04;95184.38;5015492;28;20938;-77
2022/06/27 03:59:10;;;;;;;5.53;5.03;;;;;;;21.54;78.11;95189.19;5015484;28;20443;-76
2022/06/27 04:01:37;;;;;;;6.23;5.63;;;;;;;21.86;77.30;95187.84;5015818;28;20448;-77
2022/06/27 04:04:04;;;;;;;6.07;4.97;;;;;;;22.21;77.10;95182.59;5015751;28;20478;-76
2022/06/27 04:06:31;;;;;;;6.33;5.07;;;;;;;22.54;74.71;95178.28;4982549;28;20455;-78
2022/06/27 04:08:59;;;;;;;6.60;6.00;;;;;;;22.67;73.97;95185.56;5016917;28;20844;-77
2022/06/27 04:11:28;;;;;;;7.37;5.60;;;;;;;22.92;74.18;95185.13;5016462;28;20479;-78
2022/06/27 04:13:54;;;;;;;6.30;5.53;;;;;;;23.19;73.53;95184.22;5017018;28;20455;-77
2022/06/27 04:16:21;;;;;;;5.90;5.30;;;;;;;23.49;71.86;95176.69;4998598;28;20470;-78
2022/06/27 04:18:48;;;;;;;8.93;5.63;;;;;;;23.76;70.55;95180.25;5017084;28;20468;-78
2022/06/27 04:21:15;;;;;;;8.30;5.47;;;;;;;24.08;68.60;95176.78;5017068;28;20466;-77
2022/06/27 04:23:42;;;;;;;5.07;4.67;;;;;;;24.23;66.45;95181.09;5016421;28;20444;-78
2022/06/27 04:26:09;;;;;;;3.90;3.47;;;;;;;24.33;64.57;95179.69;4982473;28;20448;-77
2022/06/27 04:28:37;;;;;;;6.27;4.50;;;;;;;24.52;64.39;95180.66;5016552;28;20776;-77
2022/06/27 04:31:04;;;;;;;7.97;4.37;;;;;;;24.80;64.13;95176.91;5015971;28;20494;-78
2022/06/27 04:33:31;;;;;;;5.63;5.13;;;;;;;25.02;63.67;95181.81;5015819;28;20428;-77
2022/06/27 04:36:00;;;;;;;8.37;5.40;;;;;;;25.16;63.21;95182.59;5015981;28;20490;-79
2022/06/27 04:38:27;;;;;;;13.20;8.13;;;;;;;25.13;66.04;95174.94;5016464;28;20529;-78
2022/06/27 04:40:53;;;;;;;7.80;6.50;;;;;;;25.22;66.43;95172.88;5016475;28;20460;-78
2022/06/27 04:43:21;;;;;;;7.57;6.80;;;;;;;25.06;66.12;95182.22;5016210;28;20440;-77
2022/06/27 04:45:49;;;;;;;9.67;7.80;;;;;;;24.78;67.48;95179.78;5016711;28;20431;-77
2022/06/27 04:48:17;;;;;;;11.30;7.20;;;;;;;24.91;67.07;95187.00;5015877;28;20499;-78
2022/06/27 04:50:44;;;;;;;10.20;6.63;;;;;;;24.93;66.57;95182.25;5016199;28;20570;-77
2022/06/27 04:53:11;;;;;;;7.23;6.53;;;;;;;24.95;65.68;95182.84;5016374;28;20449;-77
2022/06/27 04:55:38;;;;;;;10.50;7.03;;;;;;;24.91;66.12;95181.63;4998061;28;20497;-77
2022/06/27 04:58:05;;;;;;;10.43;7.30;;;;;;;25.07;65.65;95185.72;5015777;28;20934;-79
2022/06/27 05:00:35;;;;;;;7.93;7.33;;;;;;;25.26;65.17;95184.81;5014967;28;20919;-79
2022/06/27 05:03:04;;;;;;;11.90;6.80;;;;;;;25.27;65.23;95187.28;5012760;28;20484;-79
2022/06/27 05:05:30;;;;;;;8.40;7.60;;;;;;;25.50;65.02;95178.72;5015585;28;20459;-78
2022/06/27 05:07:57;;;;;;;8.37;7.30;;;;;;;25.84;64.42;95190.13;5015673;28;20519;-77
2022/06/27 05:10:24;;;;;;;11.27;6.60;;;;;;;25.86;63.62;95188.03;5015384;28;20494;-79
2022/06/27 05:12:51;;;;;;;10.83;6.40;;;;;;;26.06;63.09;95187.91;5002154;28;20444;-79
2022/06/27 05:15:18;;;;;;;7.37;6.67;;;;;;;26.39;62.05;95184.97;5015428;28;20462;-77
2022/06/27 05:17:45;;;;;;;7.80;7.10;;;;;;;26.67;61.08;95192.56;5016052;28;20511;-79
2022/06/27 05:20:14;;;;;;;9.20;6.60;;;;;;;26.81;60.28;95191.38;5015643;28;20460;-79
2022/06/27 05:22:41;;;;;;;7.77;6.53;;;;;;;27.09;60.55;95193.59;5002032;28;20445;-78
2022/06/27 05:25:09;;;;;;;10.23;6.30;;;;;;;27.33;59.11;95195.38;5015382;28;20468;-80
2022/06/27 05:27:36;;;;;;;8.20;7.27;;;;;;;27.23;58.47;95196.97;5015295;28;20448;-76
2022/06/27 05:30:05;;;;;;;7.93;6.97;;;;;;;27.25;59.15;95194.84;5015139;28;20484;-79
2022/06/27 05:32:32;;;;;;;11.63;6.83;;;;;;;27.34;59.64;95197.00;4976162;28;20507;-77
2022/06/27 05:34:58;;;;;;;7.47;6.77;;;;;;;27.52;58.84;95193.47;5007316;28;20449;-78
2022/06/27 05:37:27;;;;;;;6.67;6.00;;;;;;;27.53;58.88;95200.50;4967713;28;20504;-79
2022/06/27 05:39:54;;;;;;;7.77;7.10;;;;;;;27.52;57.86;95193.47;5015335;28;20436;-80
2022/06/27 05:42:21;;;;;;;7.20;6.60;;;;;;;27.46;57.97;95203.28;5011160;28;21174;-75
2022/06/27 05:44:48;;;;;;;12.00;7.20;;;;;;;27.30;59.23;95195.81;4996736;28;20955;-75
2022/06/27 05:47:15;;;;;;;8.30;6.67;;;;;;;27.29;58.19;95198.75;5007697;28;20470;-76
2022/06/27 05:49:44;;;;;;;8.30;6.77;;;;;;;27.45;58.16;95195.41;5014049;28;20950;-75
2022/06/27 05:52:11;;;;;;;7.27;6.57;;;;;;;27.68;58.25;95184.75;5014271;28;20456;-76
2022/06/27 05:54:39;;;;;;;9.37;7.00;;;;;;;27.94;57.21;95197.06;5014171;28;20448;-76
2022/06/27 05:57:06;;;;;;;9.63;5.90;;;;;;;28.20;56.43;95193.13;5014294;28;20453;-77
2022/06/27 05:59:33;;;;;;;8.40;5.80;;;;;;;28.40;54.01;95200.13;5014284;28;20453;-76
2022/06/27 06:02:01;;;;;;;6.37;5.70;;;;;;;28.46;53.49;95202.69;5014424;28;20449;-76
2022/06/27 06:04:28;;;;;;;7.60;5.90;;;;;;;28.58;53.84;95208.09;4979082;28;20524;-76
2022/06/27 06:06:55;;;;;;;8.73;6.00;;;;;;;28.77;53.12;95201.53;5014011;28;20442;-75
2022/06/27 06:09:22;;;;;;;6.93;6.10;;;;;;;28.98;53.09;95203.66;5013934;28;20462;-77
2022/06/27 06:11:51;;;;;;;6.63;5.93;;;;;;;29.21;52.91;95207.41;5013993;28;21408;-75
2022/06/27 06:14:19;;;;;;;8.97;6.57;;;;;;;29.28;52.93;95205.38;5013781;28;20442;-76
2022/06/27 06:16:47;;;;;;;10.63;7.13;;;;;;;29.24;52.84;95204.22;5013701;28;20805;-76
2022/06/27 06:19:14;;;;;;;13.73;8.03;;;;;;;29.28;53.24;95206.19;5014261;28;20537;-77
2022/06/27 06:21:42;;;;;;;11.83;6.30;;;;;;;29.22;52.71;95204.47;5014032;28;20459;-76
2022/06/27 06:24:09;;;;;;;11.37;7.57;;;;;;;29.08;53.55;95210.34;5013547;28;20548;-76
2022/06/27 06:26:36;;;;;;;8.77;6.73;;;;;;;28.99;55.25;95210.72;5013506;28;20449;-77
2022/06/27 06:29:12;;;;;;;11.10;7.77;;;;;;;28.76;54.43;95208.00;5013976;28;20473;-76
2022/06/27 06:31:40;;;;;;;10.90;6.97;;;;;;;28.74;55.92;95207.41;5013420;28;20488;-76
2022/06/27 06:34:08;;;;;;;13.10;8.43;;;;;;;28.47;56.93;95212.44;5012852;28;20473;-77
2022/06/27 06:36:37;;;;;;;12.03;7.57;;;;;;;28.43;57.06;95207.75;5012683;28;20567;-76
2022/06/27 06:39:04;;;;;;;20.57;9.40;;;;;;;28.29;57.13;95207.13;5012884;28;20529;-76
2022/06/27 06:41:31;;;;;;;15.43;9.43;;;;;;;28.27;56.07;95201.13;5012885;28;20446;-76
2022/06/27 06:43:59;;;;;;;13.47;9.13;;;;;;;28.19;57.08;95209.56;5012649;28;20510;-75
2022/06/27 06:46:30;;;;;;;16.17;8.63;;;;;;;28.32;57.79;95214.75;4977961;28;20488;-76
2022/06/27 06:49:02;;;;;;;11.17;8.10;;;;;;;28.44;56.70;95217.50;5012485;28;20449;-75
2022/06/27 06:51:31;;;;;;;17.90;8.90;;;;;;;28.49;56.45;95217.59;5012496;28;20588;-76
2022/06/27 06:53:58;;;;;;;11.60;8.83;;;;;;;28.45;56.03;95224.53;5012439;28;20531;-76
2022/06/27 06:56:25;;;;;;;17.90;9.07;;;;;;;28.46;56.63;95218.06;5012263;28;20452;-77
2022/06/27 06:58:52;;;;;;;13.67;8.90;;;;;;;28.42;55.95;95219.59;5012524;28;20460;-76
2022/06/27 07:01:19;;;;;;;15.53;8.60;;;;;;;28.55;56.74;95224.78;5012686;28;20480;-75
2022/06/27 07:03:49;;;;;;;8.63;7.70;;;;;;;28.38;57.14;95224.66;5012368;28;20587;-75
2022/06/27 07:06:21;;;;;;;15.37;8.57;;;;;;;28.50;56.57;95228.19;5012517;28;20475;-74
2022/06/27 07:08:48;;;;;;;13.60;7.90;;;;;;;28.51;55.11;95224.41;4994567;28;20456;-75
2022/06/27 07:11:15;;;;;;;8.90;6.53;;;;;;;28.74;55.12;95218.22;5012077;28;20497;-76
2022/06/27 07:13:42;;;;;;;12.77;7.07;;;;;;;28.81;54.01;95227.00;5012331;28;20449;-75
2022/06/27 07:16:10;;;;;;;9.10;7.60;;;;;;;28.50;53.52;95227.34;5012366;28;20445;-75
2022/06/27 07:18:37;;;;;;;8.20;7.50;;;;;;;28.50;54.08;95232.75;5012043;28;20772;-74
2022/06/27 07:21:06;;;;;;;12.53;6.23;;;;;;;28.42;53.75;95231.22;5012603;28;20492;-76
2022/06/27 07:23:33;;;;;;;14.23;8.90;;;;;;;28.66;53.85;95232.06;5012378;28;20530;-77
2022/06/27 07:26:00;;;;;;;9.10;7.03;;;;;;;28.92;53.09;95231.63;5012385;28;20472;-77
2022/06/27 07:28:28;;;;;;;9.80;6.70;;;;;;;29.05;51.38;95233.25;4993889;28;20505;-76
2022/06/27 07:30:55;;;;;;;7.73;6.70;;;;;;;29.35;51.65;95227.69;5012597;28;20538;-76
2022/06/27 07:33:23;;;;;;;9.27;6.60;;;;;;;29.67;51.72;95228.09;5012296;28;20507;-75
2022/06/27 07:35:49;;;;;;;8.67;6.50;;;;;;;29.80;49.87;95227.00;5012609;28;20825;-76
2022/06/27 07:38:18;;;;;;;16.40;8.73;;;;;;;29.95;49.51;95227.28;5012159;28;20537;-74
2022/06/27 07:40:46;;;;;;;8.13;6.10;;;;;;;29.85;48.09;95225.22;5011877;28;20443;-76
2022/06/27 07:43:14;;;;;;;8.67;5.43;;;;;;;29.92;49.15;95220.47;4977960;28;21003;-76
2022/06/27 07:45:41;;;;;;;8.83;6.97;;;;;;;30.00;49.62;95221.97;5011921;28;20965;-75
2022/06/27 07:48:09;;;;;;;8.47;6.87;;;;;;;30.04;49.22;95220.44;5012281;28;20513;-76
2022/06/27 07:50:39;;;;;;;7.90;7.10;;;;;;;30.08;48.46;95213.50;5012176;28;20487;-76
2022/06/27 07:53:15;;;;;;;7.93;7.10;;;;;;;30.21;47.57;95221.28;4978761;28;20957;-76
2022/06/27 07:55:48;;;;;;;13.90;6.80;;;;;;;30.15;48.47;95216.03;5011903;28;20467;-76
2022/06/27 07:58:16;;;;;;;10.10;6.83;;;;;;;29.89;48.35;95214.72;5011896;28;20456;-76
2022/06/27 08:00:45;;;;;;;7.77;7.00;;;;;;;29.92;47.21;95217.75;5012126;28;20463;-76
2022/06/27 08:05:56;;;;;;;9.50;6.53;;;;;;;30.12;48.01;95209.22;5012039;28;20505;-76
2022/06/27 08:08:25;;;;;;;8.50;6.63;;;;;;;30.27;47.16;95214.06;5014781;28;20465;-77
2022/06/27 08:10:54;;;;;;;6.57;5.77;;;;;;;30.21;44.75;95210.47;5015222;28;20490;-76
2022/06/27 08:13:22;;;;;;;6.90;5.73;;;;;;;30.08;45.41;95201.84;5015557;28;20952;-76
2022/06/27 08:15:50;;;;;;;6.23;5.63;;;;;;;30.01;45.27;95211.94;5015209;28;20968;-77
2022/06/27 08:18:17;;;;;;;6.30;5.17;;;;;;;29.94;45.61;95216.69;5015340;28;20447;-77
2022/06/27 08:20:45;;;;;;;6.90;5.80;;;;;;;29.75;47.60;95213.34;5015209;28;20459;-76
2022/06/27 08:23:13;;;;;;;9.80;5.70;;;;;;;29.70;46.57;95216.78;5015336;28;20448;-73
2022/06/27 08:25:41;;;;;;;7.33;5.90;;;;;;;29.84;45.81;95211.94;5015236;28;20454;-76
2022/06/27 08:28:10;;;;;;;6.40;5.90;;;;;;;30.04;44.46;95204.19;5015405;28;20869;-76
2022/06/27 08:30:38;;;;;;;6.30;5.70;;;;;;;30.21;45.23;95206.94;5014948;28;20455;-77
2022/06/27 08:33:05;;;;;;;6.40;5.80;;;;;;;30.29;44.91;95203.00;5014849;28;20937;-77
2022/06/27 08:35:32;;;;;;;6.63;5.20;;;;;;;30.45;45.04;95208.44;5014898;28;20811;-77
2022/06/27 08:38:00;;;;;;;13.00;6.13;;;;;;;30.66;43.71;95209.63;4980403;28;20463;-75
2022/06/27 08:40:27;;;;;;;6.30;5.77;;;;;;;30.38;45.24;95213.19;5014922;28;20452;-75
2022/06/27 08:42:56;;;;;;;7.40;5.93;;;;;;;29.90;44.81;95203.66;5014796;28;20986;-75
2022/06/27 08:45:25;;;;;;;6.47;5.83;;;;;;;30.00;46.00;95200.31;5014876;28;20498;-76
2022/06/27 08:47:56;;;;;;;6.17;5.57;;;;;;;30.14;45.77;95193.56;5014841;28;20478;-77
2022/06/27 08:50:23;;;;;;;8.60;5.40;;;;;;;30.26;45.77;95208.91;5014859;28;20878;-77
2022/06/27 08:52:51;;;;;;;6.50;5.50;;;;;;;30.29;46.53;95211.94;4996607;28;21016;-76
2022/06/27 08:55:18;;;;;;;7.77;5.43;;;;;;;30.24;44.61;95205.63;5015025;28;20456;-76
2022/06/27 08:57:45;;;;;;;7.50;5.67;;;;;;;30.14;44.99;95201.69;5014635;28;20448;-76
2022/06/27 09:00:15;;;;;;;9.40;7.37;;;;;;;29.99;46.14;95201.38;5015068;28;20451;-76
2022/06/27 09:02:43;;;;;;;6.50;5.90;;;;;;;30.04;46.00;95198.78;5014554;28;20459;-76
2022/06/27 09:05:23;;;;;;;7.00;5.67;;;;;;;30.11;46.10;95206.78;5014474;28;20441;-77
2022/06/27 09:07:53;;;;;;;7.90;6.23;;;;;;;30.04;46.15;95201.50;5014523;28;20860;-77
2022/06/27 09:10:30;;;;;;;9.83;6.10;;;;;;;30.07;46.16;95197.47;5014760;28;20459;-75
2022/06/27 09:12:59;;;;;;;7.10;6.43;;;;;;;30.01;45.74;95195.72;4979809;28;21001;-75
2022/06/27 09:15:29;;;;;;;6.80;6.20;;;;;;;29.59;46.17;95204.16;5014291;28;20446;-76
2022/06/27 09:18:07;;;;;;;7.77;6.13;;;;;;;29.66;45.77;95204.00;5014081;28;20450;-73
2022/06/27 09:20:52;;;;;;;9.40;6.17;;;;;;;29.75;45.80;95197.13;5014522;28;20447;-75
2022/06/27 09:23:49;;;;;;;7.93;5.60;;;;;;;29.75;46.57;95195.25;4979292;28;20447;-76
2022/06/27 09:26:19;;;;;;;8.40;5.57;;;;;;;29.50;46.27;95200.19;5014451;28;21004;-75
2022/06/27 09:28:50;;;;;;;9.43;6.00;;;;;;;29.38;48.14;95202.06;5014344;28;20454;-76
2022/06/27 09:31:42;;;;;;;6.63;5.97;;;;;;;29.25;47.75;95203.16;5014230;28;20490;-77
2022/06/27 09:34:16;;;;;;;8.87;5.83;;;;;;;29.38;47.95;95191.25;5013978;28;20456;-76
2022/06/27 09:36:45;;;;;;;6.47;5.90;;;;;;;29.40;46.80;95194.53;5014195;28;20486;-76
2022/06/27 09:39:22;;;;;;;6.33;5.73;;;;;;;29.63;47.44;95194.47;5014086;28;20446;-76
2022/06/27 09:41:58;;;;;;;5.60;5.20;;;;;;;29.77;46.13;95184.19;5013758;28;20451;-76
2022/06/27 09:44:28;;;;;;;6.37;5.77;;;;;;;29.73;46.39;95183.03;5013644;28;20458;-77
2022/06/27 09:47:02;;;;;;;6.80;5.97;;;;;;;29.74;47.34;95184.66;5013677;28;20461;-76
2022/06/27 09:49:33;;;;;;;9.93;5.40;;;;;;;29.74;47.14;95173.84;5013818;28;20852;-74
2022/06/27 09:52:06;;;;;;;5.43;4.93;;;;;;;29.40;46.81;95184.53;5013702;28;20578;-76
2022/06/27 09:54:35;;;;;;;8.50;5.97;;;;;;;29.07;48.23;95184.38;5013863;28;20450;-76
2022/06/27 09:57:03;;;;;;;8.13;6.40;;;;;;;28.85;49.16;95193.09;5013250;28;20932;-74
2022/06/27 09:59:31;;;;;;;8.07;5.63;;;;;;;28.68;48.83;95182.16;5013646;28;20818;-75
2022/06/27 10:01:58;;;;;;;7.87;5.43;;;;;;;28.63;49.02;95186.63;5013454;28;20485;-75
2022/06/27 10:04:26;;;;;;;6.80;6.10;;;;;;;28.49;48.68;95182.50;4978331;28;21007;-75
2022/06/27 10:06:55;;;;;;;5.83;5.33;;;;;;;28.52;50.45;95180.16;5013347;28;20524;-76
2022/06/27 10:09:25;;;;;;;6.50;6.00;;;;;;;28.62;51.70;95177.72;5013335;28;20449;-75
2022/06/27 10:12:23;;;;;;;13.00;6.20;;;;;;;28.64;49.54;95182.88;5013300;28;20522;-75
2022/06/27 10:15:23;;;;;;;7.57;6.87;;;;;;;28.57;49.78;95171.34;5013254;28;20507;-77
2022/06/27 10:18:01;;;;;;;8.70;6.43;;;;;;;28.43;50.21;95168.06;5013022;28;20455;-76
2022/06/27 10:20:36;;;;;;;8.17;6.07;;;;;;;28.32;50.61;95177.78;5013177;28;20458;-76
2022/06/27 10:23:31;;;;;;;6.60;6.00;;;;;;;28.27;52.04;95172.28;5013143;28;20480;-76
2022/06/27 10:25:58;;;;;;;8.60;6.40;;;;;;;28.11;49.29;95167.53;4971600;28;20455;-75
2022/06/27 10:28:26;;;;;;;5.40;4.90;;;;;;;27.95;50.88;95169.03;4971578;28;20446;-76
2022/06/27 10:30:54;;;;;;;10.60;5.27;;;;;;;28.07;50.23;95163.66;4971033;28;20482;-77
2022/06/27 10:33:37;;;;;;;7.33;5.87;;;;;;;28.17;49.84;95163.91;4971711;28;20483;-76
2022/06/27 10:36:13;;;;;;;8.70;5.00;;;;;;;28.29;51.22;95162.06;4971474;28;20450;-76
2022/06/27 10:38:56;;;;;;;6.73;6.07;;;;;;;28.06;49.95;95159.31;4971516;28;20521;-76
2022/06/27 10:41:39;;;;;;;6.17;5.67;;;;;;;28.09;50.39;95158.84;4971125;28;20450;-76
2022/06/27 10:44:32;;;;;;;7.40;6.80;;;;;;;28.28;50.58;95160.41;4921358;28;20990;-76
2022/06/27 10:47:00;;;;;;;6.43;5.83;;;;;;;28.34;51.61;95153.28;4971429;28;20447;-76
2022/06/27 10:49:30;;;;;;;6.57;5.80;;;;;;;28.17;50.46;95157.69;4971289;28;20923;-76
2022/06/27 10:52:24;;;;;;;5.90;5.30;;;;;;;28.22;50.71;95155.09;4971274;28;20904;-76
2022/06/27 10:54:54;;;;;;;5.60;5.20;;;;;;;28.22;51.23;95153.22;4971160;28;20454;-75
2022/06/27 10:57:44;;;;;;;9.20;6.57;;;;;;;28.31;52.61;95156.44;4971182;28;20447;-75
2022/06/27 11:00:27;;;;;;;6.90;5.93;;;;;;;28.45;52.46;95152.47;4971074;28;20816;-75
2022/06/27 11:02:55;;;;;;;6.77;6.07;;;;;;;28.61;49.44;95161.72;4933008;29;20451;-76
2022/06/27 11:05:22;;;;;;;8.03;5.57;;;;;;;28.70;49.11;95160.31;4951960;29;20444;-75
2022/06/27 11:07:52;;;;;;;6.63;4.97;;;;;;;28.72;51.91;95152.81;4952118;29;20541;-76
2022/06/27 11:10:21;;;;;;;6.37;5.80;;;;;;;28.54;49.89;95152.91;4951984;29;20448;-76
2022/06/27 11:12:48;;;;;;;8.83;5.70;;;;;;;28.58;50.22;95144.09;4951662;29;20481;-74
2022/06/27 11:15:15;;;;;;;9.77;6.47;;;;;;;28.73;52.03;95149.03;4951927;29;20459;-75
2022/06/27 11:17:43;;;;;;;6.80;6.10;;;;;;;28.76;48.86;95140.47;4951915;29;20452;-75
2022/06/27 11:20:25;;;;;;;6.30;5.70;;;;;;;28.88;49.66;95137.75;4951890;29;20452;-76
2022/06/27 11:22:55;;;;;;;6.90;5.70;;;;;;;29.00;48.78;95138.56;4951926;29;20455;-75
2022/06/27 11:25:27;;;;;;;7.40;6.80;;;;;;;28.82;49.25;95139.50;4952365;29;20727;-77
2022/06/27 11:27:56;;;;;;;9.10;5.70;;;;;;;28.68;49.93;95141.66;4951652;29;20453;-75
2022/06/27 11:33:21;;;;;;;9.73;6.00;;;;;;;28.84;49.38;95134.69;4951822;29;20917;-76
2022/06/27 11:35:49;;;;;;;7.93;5.47;;;;;;;28.99;48.24;95126.94;4951699;29;20452;-74
2022/06/27 11:38:30;;;;;;;7.53;5.93;;;;;;;29.23;48.40;95137.69;4951543;29;20452;-76
2022/06/27 11:41:06;;;;;;;6.27;5.50;;;;;;;29.34;49.11;95131.41;5001299;28;20445;-76
2022/06/27 11:43:56;;;;;;;5.97;5.27;;;;;;;29.43;47.00;95132.66;5016268;28;21003;-75
2022/06/27 11:46:32;;;;;;;5.30;4.80;;;;;;;29.39;46.99;95123.41;5016142;28;20450;-76
2022/06/27 11:49:14;;;;;;;5.77;5.37;;;;;;;29.05;46.99;95132.44;5016332;28;20482;-76
2022/06/27 11:51:44;;;;;;;6.27;4.60;;;;;;;28.75;47.45;95136.13;5015883;28;20812;-75